sensor_id;sensor_type;location;lat;lon;timestamp;P1;durP1;ratioP1;P2;durP2;ratioP2
64313;SDS011;50650;48.180;11.524;2023-01-10T00:01:33;1.00;;;0.57;;
64313;SDS011;50650;48.180;11.524;2023-01-10T00:03:59;1.15;;;0.70;;
64313;SDS011;50650;48.180;11.524;2023-01-10T00:06:26;1.33;;;0.70;;
64313;SDS011;50650;48.180;11.524;2023-01-10T00:08:52;1.73;;;0.63;;
64313;SDS011;50650;48.180;11.524;2023-01-10T00:11:21;1.42;;;0.70;;
64313;SDS011;50650;48.180;11.524;2023-01-10T00:14:03;0.95;;;0.60;;
64313;SDS011;50650;48.180;11.524;2023-01-10T00:16:37;0.50;;;0.40;;
64313;SDS011;50650;48.180;11.524;2023-01-10T00:19:04;2.28;;;0.60;;
64313;SDS011;50650;48.180;11.524;2023-01-10T00:21:32;2.45;;;0.77;;
64313;SDS011;50650;48.180;11.524;2023-01-10T00:23:58;0.70;;;0.50;;
64313;SDS011;50650;48.180;11.524;2023-01-10T00:26:37;1.08;;;0.65;;
64313;SDS011;50650;48.180;11.524;2023-01-10T00:29:06;1.00;;;0.60;;
64313;SDS011;50650;48.180;11.524;2023-01-10T00:31:32;1.13;;;0.60;;
64313;SDS011;50650;48.180;11.524;2023-01-10T00:33:59;1.10;;;0.68;;
64313;SDS011;50650;48.180;11.524;2023-01-10T00:36:25;1.00;;;0.60;;
64313;SDS011;50650;48.180;11.524;2023-01-10T00:38:52;2.00;;;0.70;;
64313;SDS011;50650;48.180;11.524;2023-01-10T00:41:18;3.35;;;0.77;;
64313;SDS011;50650;48.180;11.524;2023-01-10T00:44:02;1.63;;;0.63;;
64313;SDS011;50650;48.180;11.524;2023-01-10T00:46:31;1.65;;;0.60;;
64313;SDS011;50650;48.180;11.524;2023-01-10T00:48:58;1.20;;;0.70;;
64313;SDS011;50650;48.180;11.524;2023-01-10T00:51:27;1.50;;;0.80;;
64313;SDS011;50650;48.180;11.524;2023-01-10T00:53:53;2.75;;;0.82;;
64313;SDS011;50650;48.180;11.524;2023-01-10T00:56:20;1.75;;;0.80;;
64313;SDS011;50650;48.180;11.524;2023-01-10T00:58:49;1.73;;;0.70;;
64313;SDS011;50650;48.180;11.524;2023-01-10T01:01:16;1.90;;;0.70;;
64313;SDS011;50650;48.180;11.524;2023-01-10T01:03:44;1.83;;;0.77;;
64313;SDS011;50650;48.180;11.524;2023-01-10T01:06:10;1.52;;;0.63;;
64313;SDS011;50650;48.180;11.524;2023-01-10T01:08:36;1.50;;;0.60;;
64313;SDS011;50650;48.180;11.524;2023-01-10T01:11:03;1.48;;;0.90;;
64313;SDS011;50650;48.180;11.524;2023-01-10T01:13:30;1.38;;;0.70;;
64313;SDS011;50650;48.180;11.524;2023-01-10T01:15:56;2.55;;;0.90;;
64313;SDS011;50650;48.180;11.524;2023-01-10T01:18:23;1.08;;;0.50;;
64313;SDS011;50650;48.180;11.524;2023-01-10T01:20:54;2.78;;;0.70;;
64313;SDS011;50650;48.180;11.524;2023-01-10T01:23:21;2.03;;;0.70;;
64313;SDS011;50650;48.180;11.524;2023-01-10T01:25:54;3.40;;;0.80;;
64313;SDS011;50650;48.180;11.524;2023-01-10T01:28:22;2.42;;;0.85;;
64313;SDS011;50650;48.180;11.524;2023-01-10T01:30:48;0.98;;;0.50;;
64313;SDS011;50650;48.180;11.524;2023-01-10T01:33:18;0.77;;;0.52;;
64313;SDS011;50650;48.180;11.524;2023-01-10T01:35:47;1.88;;;0.60;;
64313;SDS011;50650;48.180;11.524;2023-01-10T01:38:16;1.58;;;0.75;;
64313;SDS011;50650;48.180;11.524;2023-01-10T01:40:43;1.42;;;0.70;;
64313;SDS011;50650;48.180;11.524;2023-01-10T01:43:17;3.78;;;0.90;;
64313;SDS011;50650;48.180;11.524;2023-01-10T01:45:47;0.93;;;0.63;;
64313;SDS011;50650;48.180;11.524;2023-01-10T01:48:16;0.90;;;0.50;;
64313;SDS011;50650;48.180;11.524;2023-01-10T01:50:49;1.95;;;0.73;;
64313;SDS011;50650;48.180;11.524;2023-01-10T01:53:21;1.73;;;0.70;;
64313;SDS011;50650;48.180;11.524;2023-01-10T01:55:49;1.85;;;0.60;;
64313;SDS011;50650;48.180;11.524;2023-01-10T01:58:18;2.17;;;0.60;;
64313;SDS011;50650;48.180;11.524;2023-01-10T02:00:50;2.00;;;0.40;;
64313;SDS011;50650;48.180;11.524;2023-01-10T02:03:16;1.67;;;0.60;;
64313;SDS011;50650;48.180;11.524;2023-01-10T02:05:43;3.28;;;0.88;;
64313;SDS011;50650;48.180;11.524;2023-01-10T02:08:10;3.78;;;0.77;;
64313;SDS011;50650;48.180;11.524;2023-01-10T02:10:40;1.25;;;0.50;;
64313;SDS011;50650;48.180;11.524;2023-01-10T02:13:08;2.20;;;0.50;;
64313;SDS011;50650;48.180;11.524;2023-01-10T02:15:39;2.97;;;0.80;;
64313;SDS011;50650;48.180;11.524;2023-01-10T02:18:06;2.50;;;0.70;;
64313;SDS011;50650;48.180;11.524;2023-01-10T02:20:35;1.67;;;0.50;;
64313;SDS011;50650;48.180;11.524;2023-01-10T02:23:12;1.35;;;0.60;;
64313;SDS011;50650;48.180;11.524;2023-01-10T02:26:23;3.22;;;0.70;;
64313;SDS011;50650;48.180;11.524;2023-01-10T02:29:14;4.50;;;0.82;;
64313;SDS011;50650;48.180;11.524;2023-01-10T02:32:00;2.65;;;0.50;;
64313;SDS011;50650;48.180;11.524;2023-01-10T02:34:35;2.53;;;0.60;;
64313;SDS011;50650;48.180;11.524;2023-01-10T02:37:12;1.90;;;0.50;;
64313;SDS011;50650;48.180;11.524;2023-01-10T02:39:48;1.55;;;0.60;;
64313;SDS011;50650;48.180;11.524;2023-01-10T02:42:21;3.63;;;0.50;;
64313;SDS011;50650;48.180;11.524;2023-01-10T02:44:52;1.75;;;0.47;;
64313;SDS011;50650;48.180;11.524;2023-01-10T02:47:33;1.83;;;0.47;;
64313;SDS011;50650;48.180;11.524;2023-01-10T02:52:48;3.28;;;0.90;;
64313;SDS011;50650;48.180;11.524;2023-01-10T02:55:14;2.35;;;0.60;;
64313;SDS011;50650;48.180;11.524;2023-01-10T02:57:42;1.77;;;0.35;;
64313;SDS011;50650;48.180;11.524;2023-01-10T03:00:22;1.77;;;0.38;;
64313;SDS011;50650;48.180;11.524;2023-01-10T03:02:59;1.48;;;0.40;;
64313;SDS011;50650;48.180;11.524;2023-01-10T03:05:36;0.77;;;0.40;;
64313;SDS011;50650;48.180;11.524;2023-01-10T03:08:10;1.50;;;0.40;;
64313;SDS011;50650;48.180;11.524;2023-01-10T03:10:44;0.40;;;0.30;;
64313;SDS011;50650;48.180;11.524;2023-01-10T03:13:16;1.05;;;0.30;;
64313;SDS011;50650;48.180;11.524;2023-01-10T03:15:48;0.68;;;0.35;;
64313;SDS011;50650;48.180;11.524;2023-01-10T03:18:20;0.60;;;0.40;;
64313;SDS011;50650;48.180;11.524;2023-01-10T03:20:49;0.75;;;0.43;;
64313;SDS011;50650;48.180;11.524;2023-01-10T03:23:16;1.55;;;0.68;;
64313;SDS011;50650;48.180;11.524;2023-01-10T03:25:44;2.08;;;0.40;;
64313;SDS011;50650;48.180;11.524;2023-01-10T03:28:13;0.35;;;0.30;;
64313;SDS011;50650;48.180;11.524;2023-01-10T03:30:43;1.13;;;0.50;;
64313;SDS011;50650;48.180;11.524;2023-01-10T03:33:11;1.05;;;0.40;;
64313;SDS011;50650;48.180;11.524;2023-01-10T03:35:43;1.85;;;0.63;;
64313;SDS011;50650;48.180;11.524;2023-01-10T03:38:19;1.48;;;0.40;;
64313;SDS011;50650;48.180;11.524;2023-01-10T03:40:50;0.65;;;0.30;;
64313;SDS011;50650;48.180;11.524;2023-01-10T03:43:20;1.70;;;0.60;;
64313;SDS011;50650;48.180;11.524;2023-01-10T03:46:09;1.38;;;0.50;;
64313;SDS011;50650;48.180;11.524;2023-01-10T03:48:37;0.60;;;0.30;;
64313;SDS011;50650;48.180;11.524;2023-01-10T03:51:10;1.90;;;0.70;;
64313;SDS011;50650;48.180;11.524;2023-01-10T03:53:38;0.57;;;0.38;;
64313;SDS011;50650;48.180;11.524;2023-01-10T03:56:04;0.88;;;0.50;;
64313;SDS011;50650;48.180;11.524;2023-01-10T03:58:31;1.02;;;0.60;;
64313;SDS011;50650;48.180;11.524;2023-01-10T04:00:58;1.30;;;0.63;;
64313;SDS011;50650;48.180;11.524;2023-01-10T04:03:25;1.92;;;0.40;;
64313;SDS011;50650;48.180;11.524;2023-01-10T04:05:51;0.52;;;0.40;;
64313;SDS011;50650;48.180;11.524;2023-01-10T04:08:25;0.95;;;0.47;;
64313;SDS011;50650;48.180;11.524;2023-01-10T04:10:51;0.73;;;0.47;;
64313;SDS011;50650;48.180;11.524;2023-01-10T04:13:17;1.20;;;0.55;;
64313;SDS011;50650;48.180;11.524;2023-01-10T04:15:44;1.02;;;0.60;;
64313;SDS011;50650;48.180;11.524;2023-01-10T04:18:18;1.02;;;0.52;;
64313;SDS011;50650;48.180;11.524;2023-01-10T04:20:44;0.82;;;0.40;;
64313;SDS011;50650;48.180;11.524;2023-01-10T04:23:11;0.75;;;0.57;;
64313;SDS011;50650;48.180;11.524;2023-01-10T04:25:39;0.80;;;0.50;;
64313;SDS011;50650;48.180;11.524;2023-01-10T04:28:05;1.13;;;0.63;;
64313;SDS011;50650;48.180;11.524;2023-01-10T04:30:31;0.77;;;0.40;;
64313;SDS011;50650;48.180;11.524;2023-01-10T04:33:00;0.75;;;0.50;;
64313;SDS011;50650;48.180;11.524;2023-01-10T04:35:26;0.95;;;0.43;;
64313;SDS011;50650;48.180;11.524;2023-01-10T04:37:53;2.03;;;0.85;;
64313;SDS011;50650;48.180;11.524;2023-01-10T04:40:20;0.98;;;0.60;;
64313;SDS011;50650;48.180;11.524;2023-01-10T04:42:48;1.73;;;0.73;;
64313;SDS011;50650;48.180;11.524;2023-01-10T04:45:15;1.42;;;0.55;;
64313;SDS011;50650;48.180;11.524;2023-01-10T04:47:47;1.30;;;0.60;;
64313;SDS011;50650;48.180;11.524;2023-01-10T04:50:14;1.08;;;0.50;;
64313;SDS011;50650;48.180;11.524;2023-01-10T04:52:44;0.70;;;0.60;;
64313;SDS011;50650;48.180;11.524;2023-01-10T04:55:10;0.93;;;0.60;;
64313;SDS011;50650;48.180;11.524;2023-01-10T04:57:37;2.13;;;0.70;;
64313;SDS011;50650;48.180;11.524;2023-01-10T05:00:05;2.17;;;0.80;;
64313;SDS011;50650;48.180;11.524;2023-01-10T05:02:36;0.82;;;0.60;;
64313;SDS011;50650;48.180;11.524;2023-01-10T05:05:09;1.88;;;0.60;;
64313;SDS011;50650;48.180;11.524;2023-01-10T05:07:36;1.92;;;0.88;;
64313;SDS011;50650;48.180;11.524;2023-01-10T05:10:03;2.03;;;0.80;;
64313;SDS011;50650;48.180;11.524;2023-01-10T05:12:30;1.20;;;0.75;;
64313;SDS011;50650;48.180;11.524;2023-01-10T05:14:56;1.75;;;0.80;;
64313;SDS011;50650;48.180;11.524;2023-01-10T05:17:27;3.08;;;0.88;;
64313;SDS011;50650;48.180;11.524;2023-01-10T05:19:54;1.00;;;0.60;;
64313;SDS011;50650;48.180;11.524;2023-01-10T05:22:20;3.33;;;0.90;;
64313;SDS011;50650;48.180;11.524;2023-01-10T05:24:47;1.58;;;0.90;;
64313;SDS011;50650;48.180;11.524;2023-01-10T05:27:16;1.83;;;1.00;;
64313;SDS011;50650;48.180;11.524;2023-01-10T05:29:45;1.13;;;0.75;;
64313;SDS011;50650;48.180;11.524;2023-01-10T05:32:12;2.47;;;0.90;;
64313;SDS011;50650;48.180;11.524;2023-01-10T05:34:42;1.25;;;0.75;;
64313;SDS011;50650;48.180;11.524;2023-01-10T05:37:08;1.48;;;0.80;;
64313;SDS011;50650;48.180;11.524;2023-01-10T05:39:42;1.02;;;0.73;;
64313;SDS011;50650;48.180;11.524;2023-01-10T05:42:09;1.60;;;0.82;;
64313;SDS011;50650;48.180;11.524;2023-01-10T05:44:37;0.98;;;0.80;;
64313;SDS011;50650;48.180;11.524;2023-01-10T05:47:03;0.80;;;0.63;;
64313;SDS011;50650;48.180;11.524;2023-01-10T05:49:30;0.90;;;0.60;;
64313;SDS011;50650;48.180;11.524;2023-01-10T05:51:58;0.80;;;0.60;;
64313;SDS011;50650;48.180;11.524;2023-01-10T05:54:24;1.30;;;0.50;;
64313;SDS011;50650;48.180;11.524;2023-01-10T05:56:51;1.27;;;0.50;;
64313;SDS011;50650;48.180;11.524;2023-01-10T05:59:17;2.30;;;1.25;;
64313;SDS011;50650;48.180;11.524;2023-01-10T06:01:44;3.83;;;1.48;;
64313;SDS011;50650;48.180;11.524;2023-01-10T06:04:10;3.00;;;1.30;;
64313;SDS011;50650;48.180;11.524;2023-01-10T06:06:39;1.83;;;0.95;;
64313;SDS011;50650;48.180;11.524;2023-01-10T06:09:07;1.30;;;0.80;;
64313;SDS011;50650;48.180;11.524;2023-01-10T06:11:33;3.63;;;1.52;;
64313;SDS011;50650;48.180;11.524;2023-01-10T06:14:02;7.68;;;3.30;;
64313;SDS011;50650;48.180;11.524;2023-01-10T06:16:34;3.45;;;1.60;;
64313;SDS011;50650;48.180;11.524;2023-01-10T06:19:00;4.38;;;2.22;;
64313;SDS011;50650;48.180;11.524;2023-01-10T06:21:27;2.92;;;1.45;;
64313;SDS011;50650;48.180;11.524;2023-01-10T06:23:54;4.25;;;1.40;;
64313;SDS011;50650;48.180;11.524;2023-01-10T06:26:23;2.00;;;1.10;;
64313;SDS011;50650;48.180;11.524;2023-01-10T06:28:54;1.77;;;1.10;;
64313;SDS011;50650;48.180;11.524;2023-01-10T06:31:22;1.42;;;1.00;;
64313;SDS011;50650;48.180;11.524;2023-01-10T06:33:48;1.42;;;0.88;;
64313;SDS011;50650;48.180;11.524;2023-01-10T06:36:15;2.03;;;1.25;;
64313;SDS011;50650;48.180;11.524;2023-01-10T06:38:45;1.75;;;1.05;;
64313;SDS011;50650;48.180;11.524;2023-01-10T06:41:11;1.67;;;0.80;;
64313;SDS011;50650;48.180;11.524;2023-01-10T06:43:39;1.55;;;0.60;;
64313;SDS011;50650;48.180;11.524;2023-01-10T06:46:06;3.25;;;0.80;;
64313;SDS011;50650;48.180;11.524;2023-01-10T06:48:34;1.25;;;0.65;;
64313;SDS011;50650;48.180;11.524;2023-01-10T06:51:00;1.33;;;0.68;;
64313;SDS011;50650;48.180;11.524;2023-01-10T06:53:27;1.73;;;0.70;;
64313;SDS011;50650;48.180;11.524;2023-01-10T06:55:54;1.35;;;0.50;;
64313;SDS011;50650;48.180;11.524;2023-01-10T06:58:21;1.40;;;0.70;;
64313;SDS011;50650;48.180;11.524;2023-01-10T07:00:50;0.80;;;0.57;;
64313;SDS011;50650;48.180;11.524;2023-01-10T07:03:16;0.90;;;0.50;;
64313;SDS011;50650;48.180;11.524;2023-01-10T07:05:43;0.80;;;0.60;;
64313;SDS011;50650;48.180;11.524;2023-01-10T07:08:10;1.27;;;0.82;;
64313;SDS011;50650;48.180;11.524;2023-01-10T07:10:38;1.98;;;0.60;;
64313;SDS011;50650;48.180;11.524;2023-01-10T07:13:05;1.85;;;0.90;;
64313;SDS011;50650;48.180;11.524;2023-01-10T07:15:31;1.20;;;0.90;;
64313;SDS011;50650;48.180;11.524;2023-01-10T07:17:59;2.15;;;0.95;;
64313;SDS011;50650;48.180;11.524;2023-01-10T07:20:25;0.90;;;0.52;;
64313;SDS011;50650;48.180;11.524;2023-01-10T07:22:52;0.98;;;0.60;;
64313;SDS011;50650;48.180;11.524;2023-01-10T07:25:19;1.25;;;0.70;;
64313;SDS011;50650;48.180;11.524;2023-01-10T07:27:48;0.90;;;0.50;;
64313;SDS011;50650;48.180;11.524;2023-01-10T07:30:15;2.97;;;0.73;;
64313;SDS011;50650;48.180;11.524;2023-01-10T07:32:42;1.45;;;0.70;;
64313;SDS011;50650;48.180;11.524;2023-01-10T07:35:12;1.15;;;0.70;;
64313;SDS011;50650;48.180;11.524;2023-01-10T07:37:39;0.98;;;0.77;;
64313;SDS011;50650;48.180;11.524;2023-01-10T07:40:06;0.88;;;0.70;;
64313;SDS011;50650;48.180;11.524;2023-01-10T07:42:33;2.08;;;1.27;;
64313;SDS011;50650;48.180;11.524;2023-01-10T07:45:00;2.75;;;1.40;;
64313;SDS011;50650;48.180;11.524;2023-01-10T07:47:29;2.95;;;1.35;;
64313;SDS011;50650;48.180;11.524;2023-01-10T07:49:55;4.35;;;1.20;;
64313;SDS011;50650;48.180;11.524;2023-01-10T07:52:23;3.83;;;1.30;;
64313;SDS011;50650;48.180;11.524;2023-01-10T07:54:50;4.07;;;1.10;;
64313;SDS011;50650;48.180;11.524;2023-01-10T07:57:17;2.33;;;1.10;;
64313;SDS011;50650;48.180;11.524;2023-01-10T07:59:43;3.40;;;1.20;;
64313;SDS011;50650;48.180;11.524;2023-01-10T08:02:10;2.25;;;1.30;;
64313;SDS011;50650;48.180;11.524;2023-01-10T08:04:36;2.92;;;0.95;;
64313;SDS011;50650;48.180;11.524;2023-01-10T08:07:03;2.92;;;1.40;;
64313;SDS011;50650;48.180;11.524;2023-01-10T08:09:31;2.25;;;1.20;;
64313;SDS011;50650;48.180;11.524;2023-01-10T08:11:57;1.75;;;1.10;;
64313;SDS011;50650;48.180;11.524;2023-01-10T08:14:23;1.45;;;0.90;;
64313;SDS011;50650;48.180;11.524;2023-01-10T08:16:50;2.20;;;1.30;;
64313;SDS011;50650;48.180;11.524;2023-01-10T08:19:16;4.53;;;1.38;;
64313;SDS011;50650;48.180;11.524;2023-01-10T08:21:43;3.08;;;1.30;;
64313;SDS011;50650;48.180;11.524;2023-01-10T08:24:12;3.17;;;1.35;;
64313;SDS011;50650;48.180;11.524;2023-01-10T08:26:47;3.65;;;1.40;;
64313;SDS011;50650;48.180;11.524;2023-01-10T08:29:13;5.15;;;1.38;;
64313;SDS011;50650;48.180;11.524;2023-01-10T08:31:40;5.07;;;1.73;;
64313;SDS011;50650;48.180;11.524;2023-01-10T08:34:06;3.20;;;1.63;;
64313;SDS011;50650;48.180;11.524;2023-01-10T08:36:33;4.50;;;1.58;;
64313;SDS011;50650;48.180;11.524;2023-01-10T08:38:59;3.35;;;1.63;;
64313;SDS011;50650;48.180;11.524;2023-01-10T08:41:26;4.68;;;1.50;;
64313;SDS011;50650;48.180;11.524;2023-01-10T08:43:53;3.42;;;1.42;;
64313;SDS011;50650;48.180;11.524;2023-01-10T08:46:20;3.13;;;1.35;;
64313;SDS011;50650;48.180;11.524;2023-01-10T08:48:49;2.30;;;1.35;;
64313;SDS011;50650;48.180;11.524;2023-01-10T08:51:15;4.40;;;1.30;;
64313;SDS011;50650;48.180;11.524;2023-01-10T08:53:42;1.95;;;1.08;;
64313;SDS011;50650;48.180;11.524;2023-01-10T08:56:14;3.35;;;1.30;;
64313;SDS011;50650;48.180;11.524;2023-01-10T08:58:41;2.70;;;1.13;;
64313;SDS011;50650;48.180;11.524;2023-01-10T09:01:11;6.63;;;1.23;;
64313;SDS011;50650;48.180;11.524;2023-01-10T09:03:38;2.67;;;1.00;;
64313;SDS011;50650;48.180;11.524;2023-01-10T09:06:05;2.53;;;0.73;;
64313;SDS011;50650;48.180;11.524;2023-01-10T09:08:32;2.15;;;0.90;;
64313;SDS011;50650;48.180;11.524;2023-01-10T09:10:59;2.00;;;0.98;;
64313;SDS011;50650;48.180;11.524;2023-01-10T09:13:26;3.22;;;1.00;;
64313;SDS011;50650;48.180;11.524;2023-01-10T09:15:59;0.60;;;0.47;;
64313;SDS011;50650;48.180;11.524;2023-01-10T09:18:27;2.58;;;0.50;;
64313;SDS011;50650;48.180;11.524;2023-01-10T09:20:53;4.88;;;0.80;;
64313;SDS011;50650;48.180;11.524;2023-01-10T09:23:20;3.03;;;0.50;;
64313;SDS011;50650;48.180;11.524;2023-01-10T09:25:48;3.35;;;0.75;;
64313;SDS011;50650;48.180;11.524;2023-01-10T09:28:21;1.63;;;0.70;;
64313;SDS011;50650;48.180;11.524;2023-01-10T09:30:48;3.08;;;0.88;;
64313;SDS011;50650;48.180;11.524;2023-01-10T09:33:14;4.88;;;1.00;;
64313;SDS011;50650;48.180;11.524;2023-01-10T09:35:45;2.47;;;0.80;;
64313;SDS011;50650;48.180;11.524;2023-01-10T09:38:12;1.95;;;0.90;;
64313;SDS011;50650;48.180;11.524;2023-01-10T09:40:48;3.67;;;1.63;;
64313;SDS011;50650;48.180;11.524;2023-01-10T09:43:36;4.75;;;1.25;;
64313;SDS011;50650;48.180;11.524;2023-01-10T09:46:11;4.45;;;1.23;;
64313;SDS011;50650;48.180;11.524;2023-01-10T09:48:42;4.80;;;1.50;;
64313;SDS011;50650;48.180;11.524;2023-01-10T09:51:17;3.17;;;1.17;;
64313;SDS011;50650;48.180;11.524;2023-01-10T09:53:52;4.80;;;1.10;;
64313;SDS011;50650;48.180;11.524;2023-01-10T09:56:20;2.78;;;1.27;;
64313;SDS011;50650;48.180;11.524;2023-01-10T09:58:47;6.93;;;2.80;;
64313;SDS011;50650;48.180;11.524;2023-01-10T10:01:15;8.25;;;2.63;;
64313;SDS011;50650;48.180;11.524;2023-01-10T10:03:44;4.45;;;1.85;;
64313;SDS011;50650;48.180;11.524;2023-01-10T10:06:14;4.18;;;1.70;;
64313;SDS011;50650;48.180;11.524;2023-01-10T10:08:44;2.70;;;1.10;;
64313;SDS011;50650;48.180;11.524;2023-01-10T10:14:03;5.38;;;1.30;;
64313;SDS011;50650;48.180;11.524;2023-01-10T10:16:35;4.07;;;0.90;;
64313;SDS011;50650;48.180;11.524;2023-01-10T10:19:12;3.63;;;1.02;;
64313;SDS011;50650;48.180;11.524;2023-01-10T10:21:44;4.53;;;0.85;;
64313;SDS011;50650;48.180;11.524;2023-01-10T10:27:15;3.67;;;1.10;;
64313;SDS011;50650;48.180;11.524;2023-01-10T10:30:03;5.25;;;0.88;;
64313;SDS011;50650;48.180;11.524;2023-01-10T10:32:56;3.22;;;1.30;;
64313;SDS011;50650;48.180;11.524;2023-01-10T10:35:33;3.63;;;0.75;;
64313;SDS011;50650;48.180;11.524;2023-01-10T10:38:03;3.88;;;0.77;;
64313;SDS011;50650;48.180;11.524;2023-01-10T10:40:35;2.85;;;0.80;;
64313;SDS011;50650;48.180;11.524;2023-01-10T10:43:09;3.60;;;0.85;;
64313;SDS011;50650;48.180;11.524;2023-01-10T10:45:40;4.53;;;1.10;;
64313;SDS011;50650;48.180;11.524;2023-01-10T10:48:10;3.20;;;0.90;;
64313;SDS011;50650;48.180;11.524;2023-01-10T10:50:40;4.50;;;0.98;;
64313;SDS011;50650;48.180;11.524;2023-01-10T10:53:13;6.10;;;1.50;;
64313;SDS011;50650;48.180;11.524;2023-01-10T10:55:41;6.47;;;1.40;;
64313;SDS011;50650;48.180;11.524;2023-01-10T10:58:08;3.72;;;0.90;;
64313;SDS011;50650;48.180;11.524;2023-01-10T11:00:35;6.00;;;1.10;;
64313;SDS011;50650;48.180;11.524;2023-01-10T11:03:02;2.45;;;0.77;;
64313;SDS011;50650;48.180;11.524;2023-01-10T11:05:31;7.30;;;1.15;;
64313;SDS011;50650;48.180;11.524;2023-01-10T11:08:02;4.93;;;0.85;;
64313;SDS011;50650;48.180;11.524;2023-01-10T11:10:33;2.78;;;0.73;;
64313;SDS011;50650;48.180;11.524;2023-01-10T11:13:03;3.83;;;0.88;;
64313;SDS011;50650;48.180;11.524;2023-01-10T11:15:34;6.68;;;1.10;;
64313;SDS011;50650;48.180;11.524;2023-01-10T11:18:04;6.93;;;0.90;;
64313;SDS011;50650;48.180;11.524;2023-01-10T11:20:35;4.85;;;0.73;;
64313;SDS011;50650;48.180;11.524;2023-01-10T11:23:01;7.72;;;0.80;;
64313;SDS011;50650;48.180;11.524;2023-01-10T11:25:28;4.22;;;1.05;;
64313;SDS011;50650;48.180;11.524;2023-01-10T11:27:58;3.38;;;0.70;;
64313;SDS011;50650;48.180;11.524;2023-01-10T11:30:27;6.40;;;0.90;;
64313;SDS011;50650;48.180;11.524;2023-01-10T11:32:57;4.43;;;1.08;;
64313;SDS011;50650;48.180;11.524;2023-01-10T11:35:26;5.50;;;0.80;;
64313;SDS011;50650;48.180;11.524;2023-01-10T11:37:59;3.35;;;0.70;;
64313;SDS011;50650;48.180;11.524;2023-01-10T11:40:26;3.85;;;0.60;;
64313;SDS011;50650;48.180;11.524;2023-01-10T11:42:54;4.28;;;1.30;;
64313;SDS011;50650;48.180;11.524;2023-01-10T11:45:25;7.00;;;1.10;;
64313;SDS011;50650;48.180;11.524;2023-01-10T11:47:56;3.08;;;0.70;;
64313;SDS011;50650;48.180;11.524;2023-01-10T11:50:28;2.90;;;1.00;;
64313;SDS011;50650;48.180;11.524;2023-01-10T11:53:06;3.97;;;0.88;;
64313;SDS011;50650;48.180;11.524;2023-01-10T11:55:54;5.35;;;1.30;;
64313;SDS011;50650;48.180;11.524;2023-01-10T11:58:20;4.72;;;1.02;;
64313;SDS011;50650;48.180;11.524;2023-01-10T12:00:48;5.60;;;1.00;;
64313;SDS011;50650;48.180;11.524;2023-01-10T12:03:16;3.10;;;0.85;;
64313;SDS011;50650;48.180;11.524;2023-01-10T12:05:49;4.35;;;1.00;;
64313;SDS011;50650;48.180;11.524;2023-01-10T12:08:24;4.10;;;0.90;;
64313;SDS011;50650;48.180;11.524;2023-01-10T12:10:55;4.40;;;0.98;;
64313;SDS011;50650;48.180;11.524;2023-01-10T12:13:23;3.75;;;1.02;;
64313;SDS011;50650;48.180;11.524;2023-01-10T12:15:53;6.38;;;1.10;;
64313;SDS011;50650;48.180;11.524;2023-01-10T12:18:39;6.43;;;1.02;;
64313;SDS011;50650;48.180;11.524;2023-01-10T12:21:06;4.35;;;1.00;;
64313;SDS011;50650;48.180;11.524;2023-01-10T12:23:33;5.53;;;1.02;;
64313;SDS011;50650;48.180;11.524;2023-01-10T12:26:05;2.88;;;0.70;;
64313;SDS011;50650;48.180;11.524;2023-01-10T12:28:34;4.35;;;0.80;;
64313;SDS011;50650;48.180;11.524;2023-01-10T12:31:03;5.18;;;1.00;;
64313;SDS011;50650;48.180;11.524;2023-01-10T12:33:32;2.85;;;0.70;;
64313;SDS011;50650;48.180;11.524;2023-01-10T12:36:00;3.20;;;0.60;;
64313;SDS011;50650;48.180;11.524;2023-01-10T12:38:31;6.05;;;1.20;;
64313;SDS011;50650;48.180;11.524;2023-01-10T12:41:22;3.80;;;0.95;;
64313;SDS011;50650;48.180;11.524;2023-01-10T12:44:03;4.93;;;0.90;;
64313;SDS011;50650;48.180;11.524;2023-01-10T12:46:42;6.47;;;1.23;;
64313;SDS011;50650;48.180;11.524;2023-01-10T12:49:15;3.45;;;0.82;;
64313;SDS011;50650;48.180;11.524;2023-01-10T12:51:43;4.45;;;0.90;;
64313;SDS011;50650;48.180;11.524;2023-01-10T12:54:11;4.82;;;0.88;;
64313;SDS011;50650;48.180;11.524;2023-01-10T12:56:43;4.97;;;1.20;;
64313;SDS011;50650;48.180;11.524;2023-01-10T12:59:12;4.28;;;0.90;;
64313;SDS011;50650;48.180;11.524;2023-01-10T13:01:46;4.63;;;1.02;;
64313;SDS011;50650;48.180;11.524;2023-01-10T13:04:20;3.15;;;0.70;;
64313;SDS011;50650;48.180;11.524;2023-01-10T13:06:51;2.95;;;0.68;;
64313;SDS011;50650;48.180;11.524;2023-01-10T13:09:19;3.22;;;1.00;;
64313;SDS011;50650;48.180;11.524;2023-01-10T13:11:52;4.15;;;0.70;;
64313;SDS011;50650;48.180;11.524;2023-01-10T13:14:24;2.28;;;0.60;;
64313;SDS011;50650;48.180;11.524;2023-01-10T13:16:56;4.40;;;1.00;;
64313;SDS011;50650;48.180;11.524;2023-01-10T13:19:31;5.97;;;1.00;;
64313;SDS011;50650;48.180;11.524;2023-01-10T13:24:55;4.65;;;0.93;;
64313;SDS011;50650;48.180;11.524;2023-01-10T13:27:28;5.63;;;0.82;;
64313;SDS011;50650;48.180;11.524;2023-01-10T13:29:56;5.00;;;1.05;;
64313;SDS011;50650;48.180;11.524;2023-01-10T13:32:25;9.60;;;1.20;;
64313;SDS011;50650;48.180;11.524;2023-01-10T13:34:53;2.92;;;0.82;;
64313;SDS011;50650;48.180;11.524;2023-01-10T13:37:21;4.82;;;0.80;;
64313;SDS011;50650;48.180;11.524;2023-01-10T13:39:50;3.97;;;0.80;;
64313;SDS011;50650;48.180;11.524;2023-01-10T13:42:28;2.55;;;0.52;;
64313;SDS011;50650;48.180;11.524;2023-01-10T13:45:23;4.60;;;0.90;;
64313;SDS011;50650;48.180;11.524;2023-01-10T13:51:06;4.03;;;0.95;;
64313;SDS011;50650;48.180;11.524;2023-01-10T13:56:34;4.80;;;1.60;;
64313;SDS011;50650;48.180;11.524;2023-01-10T13:59:01;5.07;;;0.95;;
64313;SDS011;50650;48.180;11.524;2023-01-10T14:01:50;3.30;;;0.60;;
64313;SDS011;50650;48.180;11.524;2023-01-10T14:04:36;5.00;;;0.80;;
64313;SDS011;50650;48.180;11.524;2023-01-10T14:07:12;3.40;;;0.70;;
64313;SDS011;50650;48.180;11.524;2023-01-10T14:09:43;3.78;;;0.65;;
64313;SDS011;50650;48.180;11.524;2023-01-10T14:12:21;8.13;;;1.65;;
64313;SDS011;50650;48.180;11.524;2023-01-10T14:14:58;6.72;;;1.27;;
64313;SDS011;50650;48.180;11.524;2023-01-10T14:17:26;4.88;;;0.63;;
64313;SDS011;50650;48.180;11.524;2023-01-10T14:22:44;4.47;;;0.55;;
64313;SDS011;50650;48.180;11.524;2023-01-10T14:25:22;6.43;;;0.73;;
64313;SDS011;50650;48.180;11.524;2023-01-10T14:27:53;4.65;;;0.80;;
64313;SDS011;50650;48.180;11.524;2023-01-10T14:30:21;3.30;;;0.90;;
64313;SDS011;50650;48.180;11.524;2023-01-10T14:32:51;4.88;;;1.00;;
64313;SDS011;50650;48.180;11.524;2023-01-10T14:35:21;5.75;;;1.77;;
64313;SDS011;50650;48.180;11.524;2023-01-10T14:37:50;4.72;;;1.13;;
64313;SDS011;50650;48.180;11.524;2023-01-10T14:40:21;5.03;;;1.15;;
64313;SDS011;50650;48.180;11.524;2023-01-10T14:42:52;4.57;;;0.75;;
64313;SDS011;50650;48.180;11.524;2023-01-10T14:45:29;10.65;;;1.77;;
64313;SDS011;50650;48.180;11.524;2023-01-10T14:47:58;6.43;;;1.23;;
64313;SDS011;50650;48.180;11.524;2023-01-10T14:50:27;3.40;;;1.02;;
64313;SDS011;50650;48.180;11.524;2023-01-10T14:52:56;7.47;;;1.60;;
64313;SDS011;50650;48.180;11.524;2023-01-10T14:55:23;5.55;;;2.55;;
64313;SDS011;50650;48.180;11.524;2023-01-10T14:57:53;11.88;;;6.75;;
64313;SDS011;50650;48.180;11.524;2023-01-10T15:00:24;4.35;;;2.05;;
64313;SDS011;50650;48.180;11.524;2023-01-10T15:02:55;6.18;;;1.20;;
64313;SDS011;50650;48.180;11.524;2023-01-10T15:05:35;7.80;;;1.30;;
64313;SDS011;50650;48.180;11.524;2023-01-10T15:08:14;6.13;;;1.00;;
64313;SDS011;50650;48.180;11.524;2023-01-10T15:10:42;2.53;;;0.70;;